Terminal Aerodrome Forecast
Issued by NWS

Home | Current Version | Previous Version | Text Only | Print | Product List | Glossary Off
Versions: 1 2 3 4 5 6 7 8 9 10 11 12 13 14 15 16 17 18 19 20 21 22 23

725
FTUS43 KDLH 300214 AAA
TAFBRD
TAF AMD
KBRD 300214Z 3002/3024 07003KT 6SM BR SKC
      TEMPO 3002/3005 1SM BR SCT006
     FM300500 08002KT 3SM BR SCT006
      TEMPO 3005/3008 3/4SM BR SCT006
     FM300800 00000KT 1SM BR BKN006
      TEMPO 3009/3013 1/2SM FG VV005
     FM301500 07005KT P6SM SCT015 SCT035=

USA.gov is the U.S. government's official web portal to all federal, state and local government web resources and services.